sensor_id;sensor_type;location;lat;lon;timestamp;pressure;altitude;pressure_sealevel;temperature;humidity
10688;BME280;5392;42.688;23.298;2022-07-24T00:00:55;57146.25;;;-144.48;47.83
10688;BME280;5392;42.688;23.298;2022-07-24T00:03:22;57179.66;;;-144.48;47.65
10688;BME280;5392;42.688;23.298;2022-07-24T00:05:55;57146.25;;;-144.48;47.21
10688;BME280;5392;42.688;23.298;2022-07-24T00:08:21;57135.81;;;-144.48;47.31
10688;BME280;5392;42.688;23.298;2022-07-24T00:10:48;57165.03;;;-144.48;47.61
10688;BME280;5392;42.688;23.298;2022-07-24T00:13:15;57100.34;;;-144.48;48.19
10688;BME280;5392;42.688;23.298;2022-07-24T00:15:42;57152.53;;;-144.48;49.11
10688;BME280;5392;42.688;23.298;2022-07-24T00:18:08;57146.25;;;-144.48;49.45
10688;BME280;5392;42.688;23.298;2022-07-24T00:20:35;57142.09;;;-144.48;48.95
10688;BME280;5392;42.688;23.298;2022-07-24T00:23:02;57119.13;;;-144.48;49.16
10688;BME280;5392;42.688;23.298;2022-07-24T00:25:28;57117.03;;;-144.48;49.43
10688;BME280;5392;42.688;23.298;2022-07-24T00:27:55;57171.31;;;-144.48;49.66
10688;BME280;5392;42.688;23.298;2022-07-24T00:30:22;57135.81;;;-144.48;50.16
10688;BME280;5392;42.688;23.298;2022-07-24T00:32:49;57171.31;;;-144.48;50.71
10688;BME280;5392;42.688;23.298;2022-07-24T00:35:15;57158.78;;;-144.48;50.88
10688;BME280;5392;42.688;23.298;2022-07-24T00:37:44;57112.88;;;-144.48;50.96
10688;BME280;5392;42.688;23.298;2022-07-24T00:40:13;57177.56;;;-144.48;51.01
10688;BME280;5392;42.688;23.298;2022-07-24T00:42:40;57110.78;;;-144.48;51.58
10688;BME280;5392;42.688;23.298;2022-07-24T00:45:07;57183.84;;;-144.48;51.27
10688;BME280;5392;42.688;23.298;2022-07-24T00:47:48;57156.69;;;-144.48;51.85
10688;BME280;5392;42.688;23.298;2022-07-24T00:50:16;57137.91;;;-144.48;51.78
10688;BME280;5392;42.688;23.298;2022-07-24T00:52:44;57154.59;;;-144.48;52.15
10688;BME280;5392;42.688;23.298;2022-07-24T00:55:11;57162.97;;;-144.48;51.72
10688;BME280;5392;42.688;23.298;2022-07-24T00:57:38;57154.59;;;-144.48;52.10
10688;BME280;5392;42.688;23.298;2022-07-24T01:00:06;57175.47;;;-144.48;51.92
10688;BME280;5392;42.688;23.298;2022-07-24T01:02:34;57127.47;;;-144.48;51.21
10688;BME280;5392;42.688;23.298;2022-07-24T01:05:00;57154.59;;;-144.48;51.37
10688;BME280;5392;42.688;23.298;2022-07-24T01:07:27;57133.75;;;-144.48;49.58
10688;BME280;5392;42.688;23.298;2022-07-24T01:09:54;57210.97;;;-144.48;48.01
10688;BME280;5392;42.688;23.298;2022-07-24T01:12:21;57148.34;;;-144.48;48.09
10688;BME280;5392;42.688;23.298;2022-07-24T01:14:48;57158.78;;;-144.48;47.93
10688;BME280;5392;42.688;23.298;2022-07-24T01:17:15;57162.97;;;-144.48;47.43
10688;BME280;5392;42.688;23.298;2022-07-24T01:19:42;57175.47;;;-144.48;48.14
10688;BME280;5392;42.688;23.298;2022-07-24T01:22:09;57133.75;;;-144.48;49.05
10688;BME280;5392;42.688;23.298;2022-07-24T01:24:35;57129.56;;;-144.48;49.33
10688;BME280;5392;42.688;23.298;2022-07-24T01:27:02;57156.69;;;-144.48;50.87
10688;BME280;5392;42.688;23.298;2022-07-24T01:29:29;57200.53;;;-144.48;50.19
10688;BME280;5392;42.688;23.298;2022-07-24T01:31:56;57158.78;;;-144.48;51.38
10688;BME280;5392;42.688;23.298;2022-07-24T01:34:22;57162.97;;;-144.48;51.70
10688;BME280;5392;42.688;23.298;2022-07-24T01:36:49;57125.38;;;-144.48;51.74
10688;BME280;5392;42.688;23.298;2022-07-24T01:39:16;57175.47;;;-144.48;52.03
10688;BME280;5392;42.688;23.298;2022-07-24T01:41:42;57169.22;;;-144.48;52.31
10688;BME280;5392;42.688;23.298;2022-07-24T01:44:09;57148.34;;;-144.48;52.95
10688;BME280;5392;42.688;23.298;2022-07-24T01:46:36;57148.34;;;-144.48;53.80
10688;BME280;5392;42.688;23.298;2022-07-24T01:49:03;57158.78;;;-144.48;54.53
10688;BME280;5392;42.688;23.298;2022-07-24T01:51:30;57142.09;;;-144.48;54.95
10688;BME280;5392;42.688;23.298;2022-07-24T01:53:57;57131.66;;;-144.48;55.04
10688;BME280;5392;42.688;23.298;2022-07-24T01:56:24;57183.84;;;-144.48;54.93
10688;BME280;5392;42.688;23.298;2022-07-24T01:58:53;57156.69;;;-144.48;54.63
10688;BME280;5392;42.688;23.298;2022-07-24T02:01:19;57208.88;;;-144.48;55.36
10688;BME280;5392;42.688;23.298;2022-07-24T02:03:46;57162.97;;;-144.48;56.35
10688;BME280;5392;42.688;23.298;2022-07-24T02:06:13;57188.00;;;-144.48;56.34
10688;BME280;5392;42.688;23.298;2022-07-24T02:08:41;57142.09;;;-144.48;56.19
10688;BME280;5392;42.688;23.298;2022-07-24T02:11:08;57173.41;;;-144.48;56.04
10688;BME280;5392;42.688;23.298;2022-07-24T02:13:35;57198.44;;;-144.48;56.05
10688;BME280;5392;42.688;23.298;2022-07-24T02:16:02;57152.53;;;-144.48;56.13
10688;BME280;5392;42.688;23.298;2022-07-24T02:18:29;57169.22;;;-144.48;55.92
10688;BME280;5392;42.688;23.298;2022-07-24T02:20:55;57160.88;;;-144.48;55.82
10688;BME280;5392;42.688;23.298;2022-07-24T02:23:22;57150.44;;;-144.48;55.36
10688;BME280;5392;42.688;23.298;2022-07-24T02:25:49;57210.97;;;-144.48;55.26
10688;BME280;5392;42.688;23.298;2022-07-24T02:28:17;57137.91;;;-144.48;55.03
10688;BME280;5392;42.688;23.298;2022-07-24T02:30:44;57146.25;;;-144.48;55.07
10688;BME280;5392;42.688;23.298;2022-07-24T02:33:11;57129.56;;;-144.48;55.67
10688;BME280;5392;42.688;23.298;2022-07-24T02:35:38;57171.31;;;-144.48;55.64
10688;BME280;5392;42.688;23.298;2022-07-24T02:38:05;57158.78;;;-144.48;55.90
10688;BME280;5392;42.688;23.298;2022-07-24T02:40:31;57131.66;;;-144.48;56.19
10688;BME280;5392;42.688;23.298;2022-07-24T02:42:58;57152.53;;;-144.48;56.56
10688;BME280;5392;42.688;23.298;2022-07-24T02:45:25;57169.22;;;-144.48;56.58
10688;BME280;5392;42.688;23.298;2022-07-24T02:47:54;57190.09;;;-144.48;56.62
10688;BME280;5392;42.688;23.298;2022-07-24T02:50:24;57173.41;;;-144.48;57.31
10688;BME280;5392;42.688;23.298;2022-07-24T02:52:51;57144.19;;;-144.48;57.74
10688;BME280;5392;42.688;23.298;2022-07-24T02:55:18;57202.63;;;-144.48;57.82
10688;BME280;5392;42.688;23.298;2022-07-24T02:57:45;57137.91;;;-144.48;57.44
10688;BME280;5392;42.688;23.298;2022-07-24T03:00:15;57188.00;;;-144.48;57.16
10688;BME280;5392;42.688;23.298;2022-07-24T03:02:44;57173.41;;;-144.48;56.33
10688;BME280;5392;42.688;23.298;2022-07-24T03:05:11;57129.56;;;-144.48;55.92
10688;BME280;5392;42.688;23.298;2022-07-24T03:07:39;57162.97;;;-144.48;56.46
10688;BME280;5392;42.688;23.298;2022-07-24T03:10:08;57148.34;;;-144.48;56.99
10688;BME280;5392;42.688;23.298;2022-07-24T03:12:35;57160.88;;;-144.48;57.31
10688;BME280;5392;42.688;23.298;2022-07-24T03:15:03;57152.53;;;-144.48;58.43
10688;BME280;5392;42.688;23.298;2022-07-24T03:17:29;57171.31;;;-144.48;59.06
10688;BME280;5392;42.688;23.298;2022-07-24T03:19:56;57183.84;;;-144.48;58.08
10688;BME280;5392;42.688;23.298;2022-07-24T03:22:23;57179.66;;;-144.48;57.92
10688;BME280;5392;42.688;23.298;2022-07-24T03:24:49;57204.69;;;-144.48;57.53
10688;BME280;5392;42.688;23.298;2022-07-24T03:27:16;57152.53;;;-144.48;57.59
10688;BME280;5392;42.688;23.298;2022-07-24T03:29:43;57183.84;;;-144.48;57.83
10688;BME280;5392;42.688;23.298;2022-07-24T03:32:09;57160.88;;;-144.48;57.27
10688;BME280;5392;42.688;23.298;2022-07-24T03:34:36;57173.41;;;-144.48;56.86
10688;BME280;5392;42.688;23.298;2022-07-24T03:37:03;57135.81;;;-144.48;56.53
10688;BME280;5392;42.688;23.298;2022-07-24T03:39:30;57137.91;;;-144.48;56.31
10688;BME280;5392;42.688;23.298;2022-07-24T03:41:57;57148.34;;;-144.48;55.18
10688;BME280;5392;42.688;23.298;2022-07-24T03:44:23;57171.31;;;-144.48;53.76
10688;BME280;5392;42.688;23.298;2022-07-24T03:46:50;57181.75;;;-144.48;52.75
10688;BME280;5392;42.688;23.298;2022-07-24T03:49:17;57156.69;;;-144.48;52.24
10688;BME280;5392;42.688;23.298;2022-07-24T03:51:44;57183.84;;;-144.48;53.06
10688;BME280;5392;42.688;23.298;2022-07-24T03:54:13;57175.47;;;-144.48;52.13
10688;BME280;5392;42.688;23.298;2022-07-24T03:56:39;57175.47;;;-144.48;50.89
10688;BME280;5392;42.688;23.298;2022-07-24T03:59:06;57152.53;;;-144.48;49.08
10688;BME280;5392;42.688;23.298;2022-07-24T04:01:33;57165.03;;;-144.48;46.53
10688;BME280;5392;42.688;23.298;2022-07-24T04:04:00;57160.88;;;-144.48;44.54
10688;BME280;5392;42.688;23.298;2022-07-24T04:06:32;57112.88;;;-144.48;42.52
10688;BME280;5392;42.688;23.298;2022-07-24T04:09:00;57125.38;;;-144.48;40.36
10688;BME280;5392;42.688;23.298;2022-07-24T04:11:28;57133.75;;;-144.48;40.34
10688;BME280;5392;42.688;23.298;2022-07-24T04:13:55;57135.81;;;-144.48;40.13
10688;BME280;5392;42.688;23.298;2022-07-24T04:16:22;57119.13;;;-144.48;38.75
10688;BME280;5392;42.688;23.298;2022-07-24T04:18:48;57158.78;;;-144.48;37.51
10688;BME280;5392;42.688;23.298;2022-07-24T04:21:16;57127.47;;;-144.48;35.89
10688;BME280;5392;42.688;23.298;2022-07-24T04:23:43;57110.78;;;-144.48;34.92
10688;BME280;5392;42.688;23.298;2022-07-24T04:26:09;57112.88;;;-144.48;34.16
10688;BME280;5392;42.688;23.298;2022-07-24T04:28:36;57092.00;;;-144.48;33.40
10688;BME280;5392;42.688;23.298;2022-07-24T04:31:03;57081.56;;;-144.48;33.00
10688;BME280;5392;42.688;23.298;2022-07-24T04:33:30;57075.31;;;-144.48;32.18
10688;BME280;5392;42.688;23.298;2022-07-24T04:35:57;57087.81;;;-144.48;31.21
10688;BME280;5392;42.688;23.298;2022-07-24T04:38:23;57066.94;;;-144.48;30.92
10688;BME280;5392;42.688;23.298;2022-07-24T04:40:50;57079.47;;;-144.48;31.64
10688;BME280;5392;42.688;23.298;2022-07-24T04:43:17;57100.34;;;-144.48;30.85
10688;BME280;5392;42.688;23.298;2022-07-24T04:45:44;57077.38;;;-144.48;29.58
10688;BME280;5392;42.688;23.298;2022-07-24T04:48:10;57058.59;;;-144.48;30.18
10688;BME280;5392;42.688;23.298;2022-07-24T04:50:37;57094.09;;;-144.48;29.30
10688;BME280;5392;42.688;23.298;2022-07-24T04:53:04;57064.88;;;-144.48;29.74
10688;BME280;5392;42.688;23.298;2022-07-24T04:55:30;57083.66;;;-144.48;28.50
10688;BME280;5392;42.688;23.298;2022-07-24T04:57:57;57079.47;;;-144.48;28.92
10688;BME280;5392;42.688;23.298;2022-07-24T05:00:24;57021.03;;;-144.48;28.03
10688;BME280;5392;42.688;23.298;2022-07-24T05:02:51;57031.47;;;-144.48;27.46
10688;BME280;5392;42.688;23.298;2022-07-24T05:05:17;57033.56;;;-144.48;27.03
10688;BME280;5392;42.688;23.298;2022-07-24T05:07:44;57056.50;;;-144.48;26.50
10688;BME280;5392;42.688;23.298;2022-07-24T05:10:11;57031.47;;;-144.48;26.44
10688;BME280;5392;42.688;23.298;2022-07-24T05:12:37;57062.78;;;-144.48;25.96
10688;BME280;5392;42.688;23.298;2022-07-24T05:15:05;57066.94;;;-144.48;26.33
10688;BME280;5392;42.688;23.298;2022-07-24T05:17:36;57058.59;;;-144.48;25.93
10688;BME280;5392;42.688;23.298;2022-07-24T05:20:03;57058.59;;;-144.48;25.96
10688;BME280;5392;42.688;23.298;2022-07-24T05:22:31;57060.69;;;-144.48;25.76
10688;BME280;5392;42.688;23.298;2022-07-24T05:24:58;57079.47;;;-144.48;25.96
10688;BME280;5392;42.688;23.298;2022-07-24T05:27:24;57077.38;;;-144.48;25.37
10688;BME280;5392;42.688;23.298;2022-07-24T05:29:51;57031.47;;;-144.48;25.32
10688;BME280;5392;42.688;23.298;2022-07-24T05:32:18;57044.00;;;-144.48;25.27
10688;BME280;5392;42.688;23.298;2022-07-24T05:34:44;57050.25;;;-144.48;25.72
10688;BME280;5392;42.688;23.298;2022-07-24T05:37:11;57062.78;;;-144.48;25.83
10688;BME280;5392;42.688;23.298;2022-07-24T05:39:38;57033.56;;;-144.48;25.66
10688;BME280;5392;42.688;23.298;2022-07-24T05:42:05;57066.94;;;-144.48;25.24
10688;BME280;5392;42.688;23.298;2022-07-24T05:44:31;57039.81;;;-144.48;25.15
10688;BME280;5392;42.688;23.298;2022-07-24T05:46:58;57021.03;;;-144.48;24.61
10688;BME280;5392;42.688;23.298;2022-07-24T05:49:25;57048.16;;;-144.48;24.26
10688;BME280;5392;42.688;23.298;2022-07-24T05:51:53;57018.94;;;-144.48;23.96
10688;BME280;5392;42.688;23.298;2022-07-24T05:54:20;57014.78;;;-144.48;23.80
10688;BME280;5392;42.688;23.298;2022-07-24T05:56:47;57012.69;;;-144.48;23.46
10688;BME280;5392;42.688;23.298;2022-07-24T05:59:14;56954.25;;;-144.48;23.20
10688;BME280;5392;42.688;23.298;2022-07-24T06:01:41;56998.09;;;-144.48;23.10
10688;BME280;5392;42.688;23.298;2022-07-24T06:04:08;57004.34;;;-144.48;22.57
10688;BME280;5392;42.688;23.298;2022-07-24T06:06:35;57027.28;;;-144.48;22.42
10688;BME280;5392;42.688;23.298;2022-07-24T06:09:03;57039.81;;;-144.48;22.52
10688;BME280;5392;42.688;23.298;2022-07-24T06:11:30;57014.78;;;-144.48;22.84
10688;BME280;5392;42.688;23.298;2022-07-24T06:13:57;56983.47;;;-144.48;22.56
10688;BME280;5392;42.688;23.298;2022-07-24T06:16:25;57010.59;;;-144.48;22.50
10688;BME280;5392;42.688;23.298;2022-07-24T06:18:52;57014.78;;;-144.48;22.76
10688;BME280;5392;42.688;23.298;2022-07-24T06:21:18;57016.88;;;-144.48;23.02
10688;BME280;5392;42.688;23.298;2022-07-24T06:23:45;57002.25;;;-144.48;22.60
10688;BME280;5392;42.688;23.298;2022-07-24T06:26:12;57025.22;;;-144.48;22.59
10688;BME280;5392;42.688;23.298;2022-07-24T06:28:39;56973.03;;;-144.48;22.22
10688;BME280;5392;42.688;23.298;2022-07-24T06:31:05;56985.56;;;-144.48;22.18
10688;BME280;5392;42.688;23.298;2022-07-24T06:33:32;57002.25;;;-144.48;21.91
10688;BME280;5392;42.688;23.298;2022-07-24T06:35:59;56993.91;;;-144.48;21.92
10688;BME280;5392;42.688;23.298;2022-07-24T06:38:26;56975.13;;;-144.48;21.90
10688;BME280;5392;42.688;23.298;2022-07-24T06:40:53;56966.78;;;-144.48;21.67
10688;BME280;5392;42.688;23.298;2022-07-24T06:43:20;56970.94;;;-144.48;21.60
10688;BME280;5392;42.688;23.298;2022-07-24T06:45:47;56958.44;;;-144.48;21.50
10688;BME280;5392;42.688;23.298;2022-07-24T06:48:14;56979.28;;;-144.48;21.40
10688;BME280;5392;42.688;23.298;2022-07-24T06:50:41;56966.78;;;-144.48;21.06
10688;BME280;5392;42.688;23.298;2022-07-24T06:53:07;56981.38;;;-144.48;21.36
10688;BME280;5392;42.688;23.298;2022-07-24T06:55:34;57000.16;;;-144.48;21.43
10688;BME280;5392;42.688;23.298;2022-07-24T06:58:01;56968.88;;;-144.48;21.81
10688;BME280;5392;42.688;23.298;2022-07-24T07:00:27;57014.78;;;-144.48;22.47
10688;BME280;5392;42.688;23.298;2022-07-24T07:02:54;57012.69;;;-144.48;22.92
10688;BME280;5392;42.688;23.298;2022-07-24T07:05:21;57029.38;;;-144.48;22.98
10688;BME280;5392;42.688;23.298;2022-07-24T07:07:48;57008.50;;;-144.48;22.11
10688;BME280;5392;42.688;23.298;2022-07-24T07:10:14;56977.22;;;-144.48;21.65
10688;BME280;5392;42.688;23.298;2022-07-24T07:12:41;57016.88;;;-144.48;22.06
10688;BME280;5392;42.688;23.298;2022-07-24T07:15:09;57006.44;;;-144.48;22.54
10688;BME280;5392;42.688;23.298;2022-07-24T07:17:41;57075.31;;;-144.48;23.32
10688;BME280;5392;42.688;23.298;2022-07-24T07:20:09;57048.16;;;-144.48;23.18
10688;BME280;5392;42.688;23.298;2022-07-24T07:22:36;57079.47;;;-144.48;23.42
10688;BME280;5392;42.688;23.298;2022-07-24T07:25:04;57071.13;;;-144.48;23.81
10688;BME280;5392;42.688;23.298;2022-07-24T07:27:31;57046.09;;;-144.48;22.72
10688;BME280;5392;42.688;23.298;2022-07-24T07:29:58;57012.69;;;-144.48;22.37
10688;BME280;5392;42.688;23.298;2022-07-24T07:32:25;57056.50;;;-144.48;21.91
10688;BME280;5392;42.688;23.298;2022-07-24T07:34:52;56975.13;;;-144.48;21.65
10688;BME280;5392;42.688;23.298;2022-07-24T07:37:19;56991.81;;;-144.48;22.01
10688;BME280;5392;42.688;23.298;2022-07-24T07:39:46;57029.38;;;-144.48;22.32
10688;BME280;5392;42.688;23.298;2022-07-24T07:42:13;57021.03;;;-144.48;22.39
10688;BME280;5392;42.688;23.298;2022-07-24T07:44:39;57000.16;;;-144.48;22.50
10688;BME280;5392;42.688;23.298;2022-07-24T07:47:06;57041.91;;;-144.48;22.89
10688;BME280;5392;42.688;23.298;2022-07-24T07:49:33;57008.50;;;-144.48;22.75
10688;BME280;5392;42.688;23.298;2022-07-24T07:52:00;57035.66;;;-144.48;22.76
10688;BME280;5392;42.688;23.298;2022-07-24T07:54:27;57008.50;;;-144.48;22.28
10688;BME280;5392;42.688;23.298;2022-07-24T07:56:54;57054.44;;;-144.48;22.98
10688;BME280;5392;42.688;23.298;2022-07-24T07:59:21;57064.88;;;-144.48;22.61
10688;BME280;5392;42.688;23.298;2022-07-24T08:01:47;57029.38;;;-144.48;23.32
10688;BME280;5392;42.688;23.298;2022-07-24T08:04:14;57027.28;;;-144.48;23.29
10688;BME280;5392;42.688;23.298;2022-07-24T08:06:41;57064.88;;;-144.48;23.32
10688;BME280;5392;42.688;23.298;2022-07-24T08:09:08;57027.28;;;-144.48;23.47
10688;BME280;5392;42.688;23.298;2022-07-24T08:11:35;57041.91;;;-144.48;23.10
10688;BME280;5392;42.688;23.298;2022-07-24T08:14:02;57062.78;;;-144.48;23.61
10688;BME280;5392;42.688;23.298;2022-07-24T08:16:28;57029.38;;;-144.48;22.83
10688;BME280;5392;42.688;23.298;2022-07-24T08:18:55;57023.13;;;-144.48;22.67
10688;BME280;5392;42.688;23.298;2022-07-24T08:21:22;57077.38;;;-144.48;22.72
10688;BME280;5392;42.688;23.298;2022-07-24T08:23:49;57000.16;;;-144.48;21.87
10688;BME280;5392;42.688;23.298;2022-07-24T08:26:16;57010.59;;;-144.48;22.23
10688;BME280;5392;42.688;23.298;2022-07-24T08:28:42;57031.47;;;-144.48;22.40
10688;BME280;5392;42.688;23.298;2022-07-24T08:31:09;57025.22;;;-144.48;22.61
10688;BME280;5392;42.688;23.298;2022-07-24T08:33:36;57035.66;;;-144.48;22.59
10688;BME280;5392;42.688;23.298;2022-07-24T08:36:03;57050.25;;;-144.48;22.61
10688;BME280;5392;42.688;23.298;2022-07-24T08:38:30;57058.59;;;-144.48;22.40
10688;BME280;5392;42.688;23.298;2022-07-24T08:40:57;57031.47;;;-144.48;22.67
10688;BME280;5392;42.688;23.298;2022-07-24T08:43:25;57041.91;;;-144.48;22.55
10688;BME280;5392;42.688;23.298;2022-07-24T08:45:54;57029.38;;;-144.48;23.03
10688;BME280;5392;42.688;23.298;2022-07-24T08:48:23;57046.09;;;-144.48;22.92
10688;BME280;5392;42.688;23.298;2022-07-24T08:50:52;57056.50;;;-144.48;23.40
10688;BME280;5392;42.688;23.298;2022-07-24T08:53:21;57054.44;;;-144.48;23.77
10688;BME280;5392;42.688;23.298;2022-07-24T08:55:49;57048.16;;;-144.48;23.50
10688;BME280;5392;42.688;23.298;2022-07-24T08:58:16;57069.03;;;-144.48;23.81
10688;BME280;5392;42.688;23.298;2022-07-24T09:00:42;57104.53;;;-144.48;24.52
10688;BME280;5392;42.688;23.298;2022-07-24T09:03:09;57069.03;;;-144.48;24.35
10688;BME280;5392;42.688;23.298;2022-07-24T09:05:56;57066.94;;;-144.48;24.32
10688;BME280;5392;42.688;23.298;2022-07-24T09:08:23;57081.56;;;-144.48;24.70
10688;BME280;5392;42.688;23.298;2022-07-24T09:10:57;57054.44;;;-144.48;25.01
10688;BME280;5392;42.688;23.298;2022-07-24T09:13:27;57075.31;;;-144.48;24.73
10688;BME280;5392;42.688;23.298;2022-07-24T09:15:56;57066.94;;;-144.48;24.41
10688;BME280;5392;42.688;23.298;2022-07-24T09:18:32;57048.16;;;-144.48;23.84
10688;BME280;5392;42.688;23.298;2022-07-24T09:21:12;57016.88;;;-144.48;23.11
10688;BME280;5392;42.688;23.298;2022-07-24T09:23:40;57023.13;;;-144.48;23.08
10688;BME280;5392;42.688;23.298;2022-07-24T09:26:07;57004.34;;;-144.48;23.11
10688;BME280;5392;42.688;23.298;2022-07-24T09:29:00;57012.69;;;-144.48;23.35
10688;BME280;5392;42.688;23.298;2022-07-24T09:31:28;57012.69;;;-144.48;23.50
10688;BME280;5392;42.688;23.298;2022-07-24T09:33:59;57021.03;;;-144.48;23.12
10688;BME280;5392;42.688;23.298;2022-07-24T09:36:35;56987.66;;;-144.48;22.65
10688;BME280;5392;42.688;23.298;2022-07-24T09:39:04;57039.81;;;-144.48;22.81
10688;BME280;5392;42.688;23.298;2022-07-24T09:41:50;57008.50;;;-144.48;22.86
10688;BME280;5392;42.688;23.298;2022-07-24T09:44:22;56993.91;;;-144.48;22.91
10688;BME280;5392;42.688;23.298;2022-07-24T09:46:58;57008.50;;;-144.48;22.96
10688;BME280;5392;42.688;23.298;2022-07-24T09:49:26;56991.81;;;-144.48;22.23
10688;BME280;5392;42.688;23.298;2022-07-24T09:52:11;56996.00;;;-144.48;22.09
10688;BME280;5392;42.688;23.298;2022-07-24T09:54:45;56996.00;;;-144.48;21.94
10688;BME280;5392;42.688;23.298;2022-07-24T09:59:52;57010.59;;;-144.48;22.13
10688;BME280;5392;42.688;23.298;2022-07-24T10:02:24;57008.50;;;-144.48;21.92
10688;BME280;5392;42.688;23.298;2022-07-24T10:04:53;57004.34;;;-144.48;21.35
10688;BME280;5392;42.688;23.298;2022-07-24T10:07:22;57008.50;;;-144.48;21.38
10688;BME280;5392;42.688;23.298;2022-07-24T10:09:51;57027.28;;;-144.48;21.12
10688;BME280;5392;42.688;23.298;2022-07-24T10:12:23;56975.13;;;-144.48;20.97
10688;BME280;5392;42.688;23.298;2022-07-24T10:14:54;57002.25;;;-144.48;21.06
10688;BME280;5392;42.688;23.298;2022-07-24T10:17:37;57021.03;;;-144.48;21.05
10688;BME280;5392;42.688;23.298;2022-07-24T10:20:11;56993.91;;;-144.48;21.09
10688;BME280;5392;42.688;23.298;2022-07-24T10:23:06;56996.00;;;-144.48;21.46
10688;BME280;5392;42.688;23.298;2022-07-24T10:28:41;57018.94;;;-144.48;22.55
10688;BME280;5392;42.688;23.298;2022-07-24T10:31:12;56991.81;;;-144.48;22.04
10688;BME280;5392;42.688;23.298;2022-07-24T10:33:41;56977.22;;;-144.48;21.86
10688;BME280;5392;42.688;23.298;2022-07-24T10:36:22;56975.13;;;-144.48;22.16
10688;BME280;5392;42.688;23.298;2022-07-24T10:39:00;57054.44;;;-144.48;22.16
10688;BME280;5392;42.688;23.298;2022-07-24T10:41:27;56975.13;;;-144.48;21.71
10688;BME280;5392;42.688;23.298;2022-07-24T10:44:17;56993.91;;;-144.48;21.74
10688;BME280;5392;42.688;23.298;2022-07-24T10:52:04;56998.09;;;-144.48;21.67
10688;BME280;5392;42.688;23.298;2022-07-24T10:54:31;57025.22;;;-144.48;21.79
10688;BME280;5392;42.688;23.298;2022-07-24T10:56:57;57025.22;;;-144.48;22.04
10688;BME280;5392;42.688;23.298;2022-07-24T10:59:33;57029.38;;;-144.48;22.13
10688;BME280;5392;42.688;23.298;2022-07-24T11:02:26;57016.88;;;-144.48;21.60
10688;BME280;5392;42.688;23.298;2022-07-24T11:05:28;57000.16;;;-144.48;21.62
10688;BME280;5392;42.688;23.298;2022-07-24T11:10:49;56989.72;;;-144.48;21.51
10688;BME280;5392;42.688;23.298;2022-07-24T11:21:41;57035.66;;;-144.48;22.33
10688;BME280;5392;42.688;23.298;2022-07-24T11:26:47;57025.22;;;-144.48;21.83
10688;BME280;5392;42.688;23.298;2022-07-24T11:31:47;56993.91;;;-144.48;21.86
10688;BME280;5392;42.688;23.298;2022-07-24T11:34:14;57000.16;;;-144.48;21.49
10688;BME280;5392;42.688;23.298;2022-07-24T11:36:45;56966.78;;;-144.48;21.48
10688;BME280;5392;42.688;23.298;2022-07-24T11:39:15;56966.78;;;-144.48;21.23
10688;BME280;5392;42.688;23.298;2022-07-24T11:41:50;57018.94;;;-144.48;21.25
10688;BME280;5392;42.688;23.298;2022-07-24T11:44:24;56979.28;;;-144.48;21.72
10688;BME280;5392;42.688;23.298;2022-07-24T11:46:52;57016.88;;;-144.48;21.89
10688;BME280;5392;42.688;23.298;2022-07-24T11:49:19;56979.28;;;-144.48;21.76
10688;BME280;5392;42.688;23.298;2022-07-24T11:51:49;56991.81;;;-144.48;22.10
10688;BME280;5392;42.688;23.298;2022-07-24T11:54:24;57016.88;;;-144.48;21.96
10688;BME280;5392;42.688;23.298;2022-07-24T11:56:52;57002.25;;;-144.48;21.86
10688;BME280;5392;42.688;23.298;2022-07-24T11:59:30;57010.59;;;-144.48;22.06
10688;BME280;5392;42.688;23.298;2022-07-24T12:04:30;57029.38;;;-144.48;22.54
10688;BME280;5392;42.688;23.298;2022-07-24T12:06:57;56996.00;;;-144.48;22.56
10688;BME280;5392;42.688;23.298;2022-07-24T12:09:25;57029.38;;;-144.48;22.99
10688;BME280;5392;42.688;23.298;2022-07-24T12:11:52;57016.88;;;-144.48;22.94
10688;BME280;5392;42.688;23.298;2022-07-24T12:14:20;57014.78;;;-144.48;22.62
10688;BME280;5392;42.688;23.298;2022-07-24T12:16:54;56996.00;;;-144.48;22.69
10688;BME280;5392;42.688;23.298;2022-07-24T12:19:24;57033.56;;;-144.48;22.52
10688;BME280;5392;42.688;23.298;2022-07-24T12:21:52;57044.00;;;-144.48;22.00
10688;BME280;5392;42.688;23.298;2022-07-24T12:24:20;57027.28;;;-144.48;22.31
10688;BME280;5392;42.688;23.298;2022-07-24T12:26:55;57000.16;;;-144.48;22.19
10688;BME280;5392;42.688;23.298;2022-07-24T12:29:25;57025.22;;;-144.48;22.42
10688;BME280;5392;42.688;23.298;2022-07-24T12:32:17;57058.59;;;-144.48;22.08
10688;BME280;5392;42.688;23.298;2022-07-24T12:34:46;56987.66;;;-144.48;22.06
10688;BME280;5392;42.688;23.298;2022-07-24T12:37:37;57010.59;;;-144.48;21.95
10688;BME280;5392;42.688;23.298;2022-07-24T12:40:04;57021.03;;;-144.48;21.61
10688;BME280;5392;42.688;23.298;2022-07-24T12:42:32;57008.50;;;-144.48;21.49
10688;BME280;5392;42.688;23.298;2022-07-24T12:45:09;57000.16;;;-144.48;21.46
10688;BME280;5392;42.688;23.298;2022-07-24T12:50:32;57000.16;;;-144.48;21.81
10688;BME280;5392;42.688;23.298;2022-07-24T12:53:20;57012.69;;;-144.48;21.77
10688;BME280;5392;42.688;23.298;2022-07-24T12:56:09;56996.00;;;-144.48;21.77
10688;BME280;5392;42.688;23.298;2022-07-24T13:01:27;57031.47;;;-144.48;22.00
10688;BME280;5392;42.688;23.298;2022-07-24T13:03:59;56991.81;;;-144.48;22.00
10688;BME280;5392;42.688;23.298;2022-07-24T13:06:32;57012.69;;;-144.48;21.94
10688;BME280;5392;42.688;23.298;2022-07-24T13:08:59;57035.66;;;-144.48;21.96
10688;BME280;5392;42.688;23.298;2022-07-24T13:11:26;56983.47;;;-144.48;22.17
10688;BME280;5392;42.688;23.298;2022-07-24T13:13:54;57083.66;;;-144.48;22.33
10688;BME280;5392;42.688;23.298;2022-07-24T13:16:21;57014.78;;;-144.48;22.20
10688;BME280;5392;42.688;23.298;2022-07-24T13:18:50;57041.91;;;-144.48;22.37
10688;BME280;5392;42.688;23.298;2022-07-24T13:21:18;57039.81;;;-144.48;22.61
10688;BME280;5392;42.688;23.298;2022-07-24T13:23:46;57016.88;;;-144.48;22.41